Time;durP1;ratioP1;P1;durP2;ratioP2;P2;SDS_P1;SDS_P2;PMS_P1;PMS_P2;Temp;Humidity;BMP_temperature;BMP_pressure;BME280_temperature;BME280_humidity;BME280_pressure;Samples;Min_cycle;Max_cycle;Signal;HPM_P1;HPM_P2
2022/08/20 00:02:55;;;;;;;1.48;1.38;;;24.00;57.50;;;;;;6219337;28;20568;-70
2022/08/20 00:06:04;;;;;;;1.25;1.15;;;24.00;56.80;;;;;;6225589;28;20396;-69
2022/08/20 00:09:05;;;;;;;1.23;1.13;;;24.00;56.80;;;;;;6242733;28;20362;-69
2022/08/20 00:12:06;;;;;;;1.27;1.17;;;24.00;56.80;;;;;;6241613;28;20091;-70
2022/08/20 00:15:07;;;;;;;1.20;1.10;;;24.00;56.80;;;;;;6242759;28;20075;-69
2022/08/20 00:18:09;;;;;;;1.42;1.33;;;24.00;56.80;;;;;;6218508;28;20029;-69
2022/08/20 00:21:14;;;;;;;1.10;1.00;;;24.00;56.80;;;;;;6223559;28;20034;-69
2022/08/20 00:24:15;;;;;;;1.50;1.40;;;24.00;56.80;;;;;;6242334;28;20061;-69
2022/08/20 00:27:16;;;;;;;1.40;1.30;;;24.00;56.80;;;;;;6226919;28;20025;-69
2022/08/20 00:30:17;;;;;;;1.42;1.23;;;24.00;56.80;;;;;;6217758;28;20030;-68
2022/08/20 00:33:21;;;;;;;1.20;1.10;;;24.00;56.80;;;;;;6241802;28;20499;-69
2022/08/20 00:36:22;;;;;;;1.38;1.27;;;24.00;56.80;;;;;;6235465;28;20030;-69
2022/08/20 00:39:23;;;;;;;1.30;1.20;;;24.00;56.80;;;;;;6217649;28;20034;-69
2022/08/20 00:42:24;;;;;;;1.30;1.20;;;24.00;56.80;;;;;;6232173;28;20045;-70
2022/08/20 00:45:29;;;;;;;1.42;1.27;;;24.00;56.80;;;;;;6241990;28;20439;-69
2022/08/20 00:48:31;;;;;;;;;;;24.00;56.80;;;;;;6219822;28;20034;-69
2022/08/20 00:51:42;;;;;;;1.30;1.20;;;24.00;56.80;;;;;;6223543;28;20375;-69
2022/08/20 00:54:48;;;;;;;1.38;1.27;;;24.00;56.80;;;;;;6242120;28;20036;-70
2022/08/20 00:57:53;;;;;;;1.50;1.40;;;24.00;56.80;;;;;;6226111;28;20508;-68
2022/08/20 01:00:54;;;;;;;;;;;24.00;56.90;;;;;;6217306;28;20374;-69
2022/08/20 01:03:55;;;;;;;1.00;0.95;;;24.00;56.80;;;;;;6242343;28;19916;-69
2022/08/20 01:06:56;;;;;;;1.25;1.15;;;24.00;56.80;;;;;;6238620;28;20029;-69
2022/08/20 01:10:01;;;;;;;1.42;1.33;;;24.00;56.80;;;;;;6222099;28;20026;-70
2022/08/20 01:13:09;;;;;;;1.30;1.20;;;24.00;56.80;;;;;;6229366;28;20026;-69
2022/08/20 01:16:18;;;;;;;1.23;1.13;;;24.00;56.80;;;;;;6222378;28;20037;-69
2022/08/20 01:19:27;;;;;;;1.30;1.20;;;24.00;56.90;;;;;;6198187;28;20384;-69
2022/08/20 01:26:12;;;;;;;1.30;1.20;;;24.00;56.80;;;;;;6245902;28;20516;-70
2022/08/20 01:29:17;;;;;;;1.30;1.15;;;23.90;56.80;;;;;;6222467;28;20026;-69
2022/08/20 01:32:18;;;;;;;;;;;24.00;56.80;;;;;;6228669;28;20025;-69
2022/08/20 01:35:20;;;;;;;1.30;1.10;;;24.00;56.90;;;;;;6246359;28;19947;-70
2022/08/20 01:38:21;;;;;;;1.20;1.10;;;24.00;56.80;;;;;;6230060;28;20053;-69
2022/08/20 01:41:42;;;;;;;1.60;1.50;;;24.00;56.90;;;;;;6222004;28;20507;-68
2022/08/20 01:44:45;;;;;;;1.30;1.20;;;24.00;56.90;;;;;;6197424;28;20062;-70
2022/08/20 01:47:46;;;;;;;1.77;1.48;;;24.00;56.90;;;;;;6222959;28;20552;-69
2022/08/20 01:51:03;;;;;;;1.10;1.00;;;23.90;56.80;;;;;;6246008;28;20480;-69
2022/08/20 01:54:05;;;;;;;1.20;1.10;;;23.90;56.80;;;;;;6226870;28;20377;-70
2022/08/20 01:57:13;;;;;;;1.33;1.10;;;24.00;56.80;;;;;;6221448;28;20030;-68
2022/08/20 02:00:17;;;;;;;1.40;1.30;;;24.00;56.80;;;;;;6245826;28;20034;-69
2022/08/20 02:03:18;;;;;;;1.30;1.20;;;23.90;56.80;;;;;;6219358;28;20026;-70
2022/08/20 02:06:24;;;;;;;1.30;1.02;;;23.90;56.80;;;;;;6245806;28;20029;-70
2022/08/20 02:09:31;;;;;;;1.50;1.10;;;24.00;56.90;;;;;;6226864;28;20393;-69
2022/08/20 02:12:32;;;;;;;1.00;1.00;;;24.00;56.80;;;;;;6236490;28;20453;-69
2022/08/20 02:15:32;;;;;;;1.20;1.10;;;23.90;56.80;;;;;;6220168;28;20259;-70
2022/08/20 02:18:33;;;;;;;1.20;1.10;;;23.90;56.80;;;;;;6231377;28;20031;-69
2022/08/20 02:21:36;;;;;;;1.40;1.30;;;24.00;56.90;;;;;;6245057;28;20021;-69
2022/08/20 02:24:37;;;;;;;1.60;1.20;;;23.90;56.80;;;;;;6226353;28;20527;-69
2022/08/20 02:27:40;;;;;;;1.30;1.20;;;23.90;56.80;;;;;;6222370;28;20061;-69
2022/08/20 02:30:47;;;;;;;1.17;1.08;;;23.90;56.80;;;;;;6245086;28;20025;-69
2022/08/20 02:33:48;;;;;;;1.10;1.00;;;23.90;56.80;;;;;;6233946;28;20489;-69
2022/08/20 02:36:49;;;;;;;1.20;1.10;;;24.00;56.90;;;;;;6220191;28;20043;-69
2022/08/20 02:39:49;;;;;;;1.15;1.05;;;23.90;56.80;;;;;;6239042;28;20693;-70
2022/08/20 02:42:50;;;;;;;1.20;1.00;;;23.90;56.80;;;;;;6243245;28;20032;-69
2022/08/20 02:45:51;;;;;;;1.30;1.20;;;23.90;56.80;;;;;;6220362;28;20030;-69
2022/08/20 02:48:52;;;;;;;1.20;1.10;;;23.90;56.80;;;;;;6227502;28;20033;-70
2022/08/20 02:51:53;;;;;;;1.35;1.25;;;23.90;56.80;;;;;;6244432;28;20037;-70
2022/08/20 02:54:53;;;;;;;1.25;1.15;;;23.90;56.80;;;;;;6227286;28;20033;-70
2022/08/20 02:57:56;;;;;;;0.80;0.80;;;23.90;56.80;;;;;;6217731;28;20037;-68
2022/08/20 03:00:58;;;;;;;1.17;1.08;;;23.90;57.50;;;;;;6234492;28;20042;-70
2022/08/20 03:03:59;;;;;;;1.30;1.10;;;23.90;56.80;;;;;;6212021;28;20029;-70
2022/08/20 03:06:59;;;;;;;1.10;1.00;;;23.90;56.80;;;;;;6244072;28;20384;-69
2022/08/20 03:10:00;;;;;;;1.10;1.00;;;23.90;56.80;;;;;;6228473;28;20022;-70
2022/08/20 03:13:02;;;;;;;1.25;1.10;;;23.90;56.80;;;;;;6242851;28;20191;-69
2022/08/20 03:16:04;;;;;;;1.10;1.00;;;23.90;56.80;;;;;;6196779;28;20038;-69
2022/08/20 03:19:04;;;;;;;1.42;1.20;;;23.90;56.90;;;;;;6208412;28;20388;-69
2022/08/20 03:22:05;;;;;;;1.20;1.10;;;23.90;56.80;;;;;;6243971;28;20025;-69
2022/08/20 03:25:07;;;;;;;1.38;1.20;;;23.90;56.90;;;;;;6241485;28;20053;-68
2022/08/20 03:28:09;;;;;;;1.38;1.17;;;23.90;56.80;;;;;;6242743;28;20144;-69
2022/08/20 03:31:10;;;;;;;1.20;1.10;;;23.90;56.80;;;;;;6243891;28;20040;-69
2022/08/20 03:34:10;;;;;;;1.15;1.05;;;23.90;56.80;;;;;;6238293;28;20270;-69
2022/08/20 03:37:11;;;;;;;1.48;1.38;;;23.90;56.80;;;;;;6214990;28;20085;-69
2022/08/20 03:40:18;;;;;;;1.10;1.00;;;23.90;56.80;;;;;;6231909;28;20026;-70
2022/08/20 03:43:19;;;;;;;1.10;1.00;;;23.90;56.90;;;;;;6242292;28;20025;-70
2022/08/20 03:46:19;;;;;;;1.23;1.00;;;23.90;56.80;;;;;;6221330;28;20025;-69
2022/08/20 03:49:22;;;;;;;1.10;1.00;;;23.90;56.80;;;;;;6223478;28;20022;-70
2022/08/20 03:52:23;;;;;;;1.23;1.13;;;23.90;56.90;;;;;;6242885;28;20032;-70
2022/08/20 03:55:24;;;;;;;1.30;1.20;;;23.90;56.80;;;;;;6229001;28;20393;-69
2022/08/20 03:58:27;;;;;;;1.10;1.00;;;23.90;56.90;;;;;;6217979;28;20030;-69
2022/08/20 04:01:28;;;;;;;1.20;1.00;;;23.90;56.80;;;;;;6221824;28;20023;-69
2022/08/20 04:04:28;;;;;;;1.33;1.23;;;23.90;56.90;;;;;;6201762;28;20025;-69
2022/08/20 04:07:29;;;;;;;1.20;1.10;;;23.90;56.90;;;;;;6242288;28;20072;-69
2022/08/20 04:10:31;;;;;;;1.10;1.02;;;23.90;56.90;;;;;;6233723;28;20036;-69
2022/08/20 04:13:31;;;;;;;1.30;1.20;;;23.90;56.80;;;;;;6242767;28;20492;-69
2022/08/20 04:16:32;;;;;;;1.20;1.10;;;23.90;56.80;;;;;;6222530;28;20029;-69
2022/08/20 04:19:34;;;;;;;1.20;1.10;;;23.90;56.80;;;;;;6220662;28;20040;-70
2022/08/20 04:22:35;;;;;;;1.20;1.10;;;23.90;56.90;;;;;;6242706;28;20033;-69
2022/08/20 04:25:39;;;;;;;1.30;1.20;;;23.90;56.90;;;;;;6231779;28;20080;-69
2022/08/20 04:28:40;;;;;;;1.13;1.02;;;23.90;56.90;;;;;;6217826;28;20029;-69
2022/08/20 04:31:40;;;;;;;0.95;0.93;;;23.90;56.80;;;;;;6237470;28;20108;-69
2022/08/20 04:34:42;;;;;;;1.42;1.00;;;23.90;56.80;;;;;;6240816;28;20029;-69
2022/08/20 04:37:45;;;;;;;1.20;1.10;;;23.90;56.80;;;;;;6217541;28;20036;-70
2022/08/20 04:40:57;;;;;;;1.10;1.00;;;23.90;56.80;;;;;;6227254;28;20060;-70
2022/08/20 04:43:57;;;;;;;1.00;1.00;;;23.90;56.80;;;;;;6241367;28;20044;-69
2022/08/20 04:46:58;;;;;;;1.10;1.00;;;23.90;56.90;;;;;;6223318;28;20026;-69
2022/08/20 04:49:59;;;;;;;1.20;1.10;;;23.90;56.90;;;;;;6219740;28;20501;-70
2022/08/20 04:53:04;;;;;;;1.20;1.10;;;23.90;56.80;;;;;;6242244;28;20109;-69
2022/08/20 04:56:05;;;;;;;1.40;1.10;;;23.90;56.90;;;;;;6231926;28;20093;-69
2022/08/20 05:03:05;;;;;;;1.10;1.00;;;23.90;56.80;;;;;;6193074;28;20042;-69
2022/08/20 05:06:08;;;;;;;1.15;1.05;;;23.90;56.90;;;;;;6211310;28;20037;-70
2022/08/20 05:09:09;;;;;;;1.33;0.98;;;23.90;56.80;;;;;;6242275;28;20018;-69
2022/08/20 05:12:12;;;;;;;1.10;1.00;;;23.90;56.90;;;;;;6240442;28;20052;-69
2022/08/20 05:15:13;;;;;;;1.20;1.10;;;23.90;56.90;;;;;;6241585;28;20034;-70
2022/08/20 05:18:17;;;;;;;1.55;1.30;;;23.90;56.90;;;;;;6217181;28;20095;-69
2022/08/20 05:21:19;;;;;;;1.05;0.95;;;23.90;56.90;;;;;;6225914;28;20404;-69
2022/08/20 05:24:20;;;;;;;1.13;1.02;;;23.90;57.60;;;;;;6241714;28;20054;-70
2022/08/20 05:27:22;;;;;;;1.05;1.02;;;23.90;56.80;;;;;;6225180;28;20077;-70
2022/08/20 05:30:23;;;;;;;1.42;1.20;;;23.90;56.90;;;;;;6217241;28;20488;-69
2022/08/20 05:33:24;;;;;;;1.15;1.05;;;23.90;56.90;;;;;;6241210;28;20021;-69
2022/08/20 05:36:25;;;;;;;1.15;1.05;;;23.90;56.90;;;;;;6234014;28;20022;-69
2022/08/20 05:39:26;;;;;;;1.30;1.20;;;23.90;56.90;;;;;;6216998;28;20040;-69
2022/08/20 05:42:28;;;;;;;1.45;1.10;;;23.90;56.90;;;;;;6232548;28;20396;-69
2022/08/20 05:45:29;;;;;;;1.13;1.02;;;23.90;56.90;;;;;;6241562;28;20210;-69
2022/08/20 05:48:34;;;;;;;1.13;1.02;;;23.90;56.90;;;;;;6218216;28;20022;-69
2022/08/20 05:51:35;;;;;;;1.20;1.08;;;23.90;56.90;;;;;;6224934;28;20404;-69
2022/08/20 05:54:36;;;;;;;1.20;1.10;;;23.90;56.90;;;;;;6245850;28;20029;-70
2022/08/20 05:57:37;;;;;;;1.20;1.10;;;23.90;56.90;;;;;;6231187;28;20022;-69
2022/08/20 06:00:38;;;;;;;1.30;1.20;;;23.90;56.90;;;;;;6221604;28;20045;-69
2022/08/20 06:07:05;;;;;;;1.20;1.10;;;23.90;56.90;;;;;;6237796;28;20030;-69
2022/08/20 06:10:09;;;;;;;0.80;0.80;;;23.90;56.90;;;;;;6221555;28;20026;-69
2022/08/20 06:13:10;;;;;;;1.05;0.95;;;23.90;56.90;;;;;;6227774;28;20439;-69
2022/08/20 06:16:10;;;;;;;1.20;1.10;;;23.90;56.90;;;;;;6220901;28;20071;-69
2022/08/20 06:19:12;;;;;;;1.08;0.98;;;23.90;56.90;;;;;;6244615;28;20035;-70
2022/08/20 06:22:14;;;;;;;1.10;1.00;;;23.90;56.90;;;;;;6237862;28;20028;-69
2022/08/20 06:25:15;;;;;;;0.93;0.88;;;23.90;56.90;;;;;;6220531;28;20129;-69
2022/08/20 06:28:16;;;;;;;0.85;0.85;;;23.90;56.90;;;;;;6236094;28;20025;-70
2022/08/20 06:31:17;;;;;;;1.10;1.00;;;23.90;56.90;;;;;;6246009;28;20211;-70
2022/08/20 06:34:18;;;;;;;0.88;0.88;;;23.90;56.90;;;;;;6221001;28;20080;-69
2022/08/20 06:37:22;;;;;;;1.27;1.17;;;23.90;56.90;;;;;;6226916;28;20041;-70
2022/08/20 06:40:27;;;;;;;1.10;1.00;;;23.90;56.90;;;;;;6245128;28;20121;-70
2022/08/20 06:43:27;;;;;;;1.10;1.00;;;23.90;56.90;;;;;;6229426;28;20026;-68
2022/08/20 06:46:28;;;;;;;0.90;0.90;;;23.90;56.90;;;;;;6220469;28;20508;-69
2022/08/20 06:49:30;;;;;;;1.05;0.95;;;23.90;56.90;;;;;;6242703;28;20044;-70
2022/08/20 06:52:30;;;;;;;0.88;0.80;;;23.90;56.90;;;;;;6238641;28;20045;-69
2022/08/20 06:55:31;;;;;;;1.00;0.98;;;23.90;56.90;;;;;;6219663;28;20109;-69
2022/08/20 06:58:32;;;;;;;0.90;0.90;;;23.90;56.90;;;;;;6233195;28;20039;-69
2022/08/20 07:01:33;;;;;;;1.20;1.10;;;23.90;56.90;;;;;;6223579;28;20026;-69
2022/08/20 07:04:34;;;;;;;1.10;1.00;;;23.90;56.90;;;;;;6237834;28;20457;-70
2022/08/20 07:07:36;;;;;;;1.45;1.00;;;23.90;57.00;;;;;;6239814;28;20075;-69
2022/08/20 07:10:36;;;;;;;1.10;1.00;;;23.90;56.90;;;;;;6222422;28;20029;-68
2022/08/20 07:13:37;;;;;;;1.10;1.00;;;23.90;56.90;;;;;;6231520;28;20026;-69
2022/08/20 07:16:38;;;;;;;1.38;1.20;;;23.90;56.90;;;;;;6219333;28;20449;-69
2022/08/20 07:19:39;;;;;;;1.00;0.88;;;23.90;56.90;;;;;;6239547;28;20483;-69
2022/08/20 07:22:41;;;;;;;0.90;0.90;;;23.90;56.90;;;;;;6240412;28;20097;-69
2022/08/20 07:25:43;;;;;;;1.17;1.08;;;23.90;56.90;;;;;;6218873;28;20053;-69
2022/08/20 07:28:44;;;;;;;1.20;1.10;;;23.90;56.90;;;;;;6218484;28;20132;-69
2022/08/20 07:35:07;;;;;;;1.20;1.10;;;23.90;56.90;;;;;;6240241;28;20033;-69
2022/08/20 07:38:22;;;;;;;1.30;1.00;;;23.90;56.90;;;;;;6238750;28;20412;-68
2022/08/20 07:41:23;;;;;;;1.00;0.90;;;23.90;57.00;;;;;;6221099;28;20042;-69
2022/08/20 07:44:23;;;;;;;1.25;1.15;;;23.90;56.90;;;;;;6232776;28;20251;-70
2022/08/20 07:47:24;;;;;;;1.27;1.17;;;23.90;56.90;;;;;;6243180;28;20021;-69
2022/08/20 07:50:25;;;;;;;1.20;1.10;;;23.90;56.90;;;;;;6221557;28;20080;-69
2022/08/20 07:53:26;;;;;;;0.70;0.70;;;23.90;56.90;;;;;;6224823;28;20037;-69
2022/08/20 07:56:27;;;;;;;1.65;1.20;;;23.90;56.90;;;;;;6243026;28;20443;-69
2022/08/20 07:59:29;;;;;;;1.10;1.00;;;23.90;56.90;;;;;;6229933;28;20538;-69
2022/08/20 08:02:29;;;;;;;1.20;1.10;;;23.90;57.00;;;;;;6218449;28;20033;-70
2022/08/20 08:05:33;;;;;;;1.30;1.20;;;23.90;57.00;;;;;;6238743;28;20084;-69
2022/08/20 08:08:34;;;;;;;1.20;1.10;;;23.90;56.90;;;;;;6238834;28;20026;-69
2022/08/20 08:11:38;;;;;;;1.15;1.05;;;23.90;56.90;;;;;;6229589;28;20029;-69
2022/08/20 08:14:42;;;;;;;1.25;1.13;;;23.90;56.90;;;;;;6229480;28;20072;-69
2022/08/20 08:17:47;;;;;;;1.20;1.10;;;23.90;57.00;;;;;;6218194;28;20527;-70
2022/08/20 08:20:51;;;;;;;1.05;0.95;;;23.90;56.90;;;;;;6238917;28;20038;-69
2022/08/20 08:23:52;;;;;;;0.77;0.75;;;23.90;56.90;;;;;;6237719;28;20096;-70
2022/08/20 08:26:53;;;;;;;1.23;1.13;;;23.90;56.90;;;;;;6218103;28;20040;-69
2022/08/20 08:29:53;;;;;;;1.20;1.02;;;23.90;56.90;;;;;;6230100;28;20025;-69
2022/08/20 08:36:14;;;;;;;1.38;1.27;;;23.90;57.00;;;;;;6219458;28;20026;-69
2022/08/20 08:39:15;;;;;;;0.75;0.75;;;23.90;57.00;;;;;;6221907;28;20080;-68
2022/08/20 08:42:40;;;;;;;1.15;1.05;;;23.90;56.90;;;;;;6242512;28;20028;-69
2022/08/20 08:45:44;;;;;;;;;;;23.90;56.90;;;;;;6224591;28;20026;-69
2022/08/20 08:48:47;;;;;;;1.02;1.00;;;23.90;57.00;;;;;;6218688;28;19913;-69
2022/08/20 08:51:55;;;;;;;1.45;1.20;;;23.90;56.90;;;;;;6242391;28;20021;-69
2022/08/20 08:54:58;;;;;;;1.02;0.95;;;23.90;56.90;;;;;;6232712;28;20034;-69
2022/08/20 08:58:02;;;;;;;1.33;1.20;;;23.90;56.90;;;;;;6217727;28;20057;-69
2022/08/20 09:01:16;;;;;;;1.30;1.20;;;23.90;57.00;;;;;;6221862;28;20069;-69
2022/08/20 09:04:20;;;;;;;1.50;1.08;;;23.90;56.90;;;;;;6198367;28;20068;-69
2022/08/20 09:07:23;;;;;;;1.95;1.33;;;23.90;57.00;;;;;;6242620;28;20045;-69
2022/08/20 09:10:24;;;;;;;1.70;1.10;;;23.90;56.90;;;;;;6232621;28;20022;-69
2022/08/20 09:13:24;;;;;;;1.60;1.10;;;23.90;56.90;;;;;;6242205;28;20753;-70
2022/08/20 09:16:26;;;;;;;1.60;1.30;;;23.90;56.90;;;;;;6223451;28;20018;-69
2022/08/20 09:19:26;;;;;;;1.70;1.20;;;23.90;56.90;;;;;;6218923;28;20483;-69
2022/08/20 09:22:27;;;;;;;1.30;1.20;;;23.90;56.90;;;;;;6241619;28;20063;-69
2022/08/20 09:25:28;;;;;;;1.17;1.08;;;23.90;56.90;;;;;;6239870;28;20050;-70
2022/08/20 09:28:28;;;;;;;1.40;1.10;;;23.90;56.90;;;;;;6246233;28;20503;-69
2022/08/20 09:31:29;;;;;;;1.77;1.25;;;23.90;56.90;;;;;;6228959;28;20030;-70
2022/08/20 09:34:30;;;;;;;1.20;1.10;;;23.90;56.90;;;;;;6221995;28;20148;-70
2022/08/20 09:37:32;;;;;;;1.25;1.15;;;23.90;56.90;;;;;;6245762;28;20068;-69
2022/08/20 09:40:33;;;;;;;1.13;1.02;;;23.90;56.90;;;;;;6238678;28;20056;-70
2022/08/20 09:43:34;;;;;;;1.38;1.17;;;23.90;57.00;;;;;;6221529;28;20029;-69
2022/08/20 09:46:34;;;;;;;1.30;1.20;;;23.90;57.60;;;;;;6237128;28;20522;-69
2022/08/20 09:49:36;;;;;;;1.42;1.30;;;23.90;56.90;;;;;;6246252;28;20022;-69
2022/08/20 09:52:40;;;;;;;1.27;1.17;;;23.90;56.90;;;;;;6222116;28;20057;-69
2022/08/20 09:55:44;;;;;;;1.20;1.10;;;23.90;56.90;;;;;;6228812;28;20040;-70
2022/08/20 09:58:44;;;;;;;1.20;1.10;;;23.90;56.90;;;;;;6245374;28;20029;-69
2022/08/20 10:01:45;;;;;;;1.45;1.15;;;23.90;57.00;;;;;;6230920;28;20073;-69
2022/08/20 10:04:45;;;;;;;1.33;1.23;;;23.90;57.00;;;;;;6221189;28;20346;-69
2022/08/20 10:07:46;;;;;;;1.33;1.23;;;23.90;57.00;;;;;;6243736;28;20024;-69
2022/08/20 10:10:47;;;;;;;1.10;0.90;;;23.90;57.00;;;;;;6244293;28;20033;-69
2022/08/20 10:13:47;;;;;;;1.13;1.02;;;23.90;57.00;;;;;;6245247;28;20083;-70
2022/08/20 10:16:57;;;;;;;1.70;1.13;;;23.90;56.90;;;;;;6231934;28;20061;-70
2022/08/20 10:19:58;;;;;;;1.10;1.00;;;23.90;57.00;;;;;;6219376;28;20038;-69
2022/08/20 10:22:58;;;;;;;1.27;1.17;;;23.90;57.00;;;;;;6257828;28;20452;-70
2022/08/20 10:25:59;;;;;;;1.02;0.93;;;23.90;57.00;;;;;;6239741;28;20022;-70
2022/08/20 10:29:00;;;;;;;1.70;1.05;;;23.90;57.00;;;;;;6220262;28;20029;-70
2022/08/20 10:32:10;;;;;;;1.10;1.00;;;23.90;57.00;;;;;;6215907;28;20091;-70
2022/08/20 10:35:11;;;;;;;1.20;1.10;;;23.90;56.90;;;;;;6217664;28;20034;-69
2022/08/20 10:38:12;;;;;;;1.10;1.00;;;23.90;57.00;;;;;;6226248;28;20022;-68
2022/08/20 10:41:12;;;;;;;1.52;1.23;;;23.90;57.00;;;;;;6227910;28;20025;-69
2022/08/20 10:44:13;;;;;;;1.23;1.13;;;23.90;56.90;;;;;;6233569;28;20042;-69
2022/08/20 10:47:28;;;;;;;1.15;1.05;;;23.90;56.90;;;;;;6233175;28;20026;-69
2022/08/20 10:50:29;;;;;;;1.23;1.13;;;23.90;56.90;;;;;;6242426;28;20071;-69
2022/08/20 10:53:30;;;;;;;1.30;1.08;;;23.90;56.90;;;;;;6222024;28;20030;-69
2022/08/20 10:56:30;;;;;;;1.17;0.90;;;23.90;57.00;;;;;;6225683;28;20029;-67
2022/08/20 10:59:31;;;;;;;1.67;1.20;;;23.90;57.10;;;;;;6245073;28;20030;-67
2022/08/20 11:02:32;;;;;;;1.33;1.23;;;24.00;57.50;;;;;;6235801;28;20037;-68
2022/08/20 11:05:32;;;;;;;1.40;1.30;;;23.90;57.20;;;;;;6244152;28;20067;-68
2022/08/20 11:08:33;;;;;;;1.75;1.30;;;23.90;57.20;;;;;;6225861;28;20028;-68
2022/08/20 11:11:33;;;;;;;1.17;1.08;;;23.90;57.30;;;;;;6240857;28;20041;-67
2022/08/20 11:14:34;;;;;;;1.50;1.27;;;24.00;57.30;;;;;;6241940;28;20030;-67
2022/08/20 11:17:39;;;;;;;1.17;1.08;;;23.90;57.30;;;;;;6232414;28;20030;-67
2022/08/20 11:20:39;;;;;;;1.10;1.00;;;23.90;57.30;;;;;;6219242;28;20029;-68
2022/08/20 11:23:40;;;;;;;1.90;1.27;;;23.90;57.30;;;;;;6238804;28;20064;-68
2022/08/20 11:26:41;;;;;;;1.90;1.50;;;23.90;57.30;;;;;;6240509;28;20037;-68
2022/08/20 11:29:41;;;;;;;1.67;1.27;;;23.90;57.20;;;;;;6219108;28;20029;-67
2022/08/20 11:32:42;;;;;;;1.70;1.20;;;23.90;57.30;;;;;;6229217;28;20496;-68
2022/08/20 11:35:42;;;;;;;2.22;1.13;;;23.90;57.20;;;;;;6243693;28;20109;-68
2022/08/20 11:38:43;;;;;;;0.82;0.82;;;23.90;57.30;;;;;;6224884;28;20034;-68
2022/08/20 11:41:44;;;;;;;1.80;1.10;;;23.90;57.20;;;;;;6219698;28;20084;-68
2022/08/20 11:44:45;;;;;;;1.30;1.20;;;23.90;57.20;;;;;;6243209;28;20096;-67
2022/08/20 11:47:45;;;;;;;1.17;1.08;;;23.90;57.20;;;;;;6234203;28;20054;-68
2022/08/20 11:50:47;;;;;;;1.10;1.00;;;23.90;57.20;;;;;;6218078;28;20104;-68
2022/08/20 11:53:48;;;;;;;1.10;1.00;;;23.90;57.20;;;;;;6235011;28;20064;-67
2022/08/20 11:56:48;;;;;;;1.10;0.88;;;23.90;57.20;;;;;;6243282;28;20494;-68
2022/08/20 11:59:51;;;;;;;1.00;0.90;;;23.90;57.20;;;;;;6218179;28;20524;-67
2022/08/20 12:02:52;;;;;;;1.23;1.13;;;23.90;57.20;;;;;;6206177;28;20029;-68
2022/08/20 12:05:52;;;;;;;0.70;0.70;;;23.90;57.20;;;;;;6218026;28;20099;-68
2022/08/20 12:08:53;;;;;;;1.13;1.00;;;23.90;57.20;;;;;;6233461;28;20261;-68
2022/08/20 12:11:53;;;;;;;1.05;0.90;;;23.90;57.20;;;;;;6228130;28;20037;-67
2022/08/20 12:14:54;;;;;;;1.15;1.05;;;23.90;57.20;;;;;;6241443;28;20443;-68
2022/08/20 12:17:55;;;;;;;0.80;0.80;;;23.90;57.20;;;;;;6236336;28;20109;-68
2022/08/20 12:20:56;;;;;;;1.10;1.00;;;23.90;57.20;;;;;;6216152;28;20034;-67
2022/08/20 12:23:56;;;;;;;1.27;1.17;;;23.90;57.20;;;;;;6231031;28;20377;-67
2022/08/20 12:27:18;;;;;;;0.88;0.82;;;23.90;57.20;;;;;;6242693;28;20029;-68
2022/08/20 12:30:22;;;;;;;1.35;1.00;;;23.90;57.10;;;;;;6218761;28;20022;-68
2022/08/20 12:33:23;;;;;;;1.02;0.93;;;23.90;57.20;;;;;;6225635;28;20026;-68
2022/08/20 12:36:24;;;;;;;1.40;1.10;;;23.80;57.10;;;;;;6242916;28;20684;-68
2022/08/20 12:39:25;;;;;;;1.00;0.90;;;23.90;57.20;;;;;;6226570;28;20025;-67
2022/08/20 12:42:28;;;;;;;0.88;0.80;;;23.90;57.20;;;;;;6218186;28;20069;-67
2022/08/20 12:45:29;;;;;;;0.90;0.90;;;23.90;57.20;;;;;;6241463;28;20111;-68
2022/08/20 12:48:29;;;;;;;1.25;1.15;;;23.90;57.20;;;;;;6234421;28;20034;-68
2022/08/20 12:51:30;;;;;;;1.00;0.90;;;23.90;57.20;;;;;;6218124;28;20401;-68
2022/08/20 12:54:31;;;;;;;2.50;1.10;;;23.90;57.20;;;;;;6232503;28;20499;-68
2022/08/20 12:57:35;;;;;;;1.08;0.98;;;23.90;57.20;;;;;;6242140;28;20025;-68
2022/08/20 13:00:43;;;;;;;1.00;0.90;;;23.90;57.10;;;;;;6221088;28;20041;-67
2022/08/20 13:03:43;;;;;;;0.75;0.75;;;23.90;57.20;;;;;;6229242;28;20048;-67
2022/08/20 13:06:44;;;;;;;1.00;0.82;;;23.90;57.20;;;;;;6247071;28;20068;-68
2022/08/20 13:09:45;;;;;;;0.80;0.80;;;23.90;57.20;;;;;;6232867;28;20030;-68
2022/08/20 13:12:46;;;;;;;1.15;0.95;;;23.90;57.20;;;;;;6239112;28;20037;-67
2022/08/20 13:15:49;;;;;;;1.02;0.80;;;23.90;57.20;;;;;;6224708;28;20017;-68
2022/08/20 13:18:49;;;;;;;1.00;0.90;;;23.90;57.20;;;;;;6227467;28;20017;-67
2022/08/20 13:21:50;;;;;;;0.85;0.85;;;23.90;57.20;;;;;;6246950;28;20547;-68
2022/08/20 13:24:52;;;;;;;1.20;1.10;;;23.90;57.20;;;;;;6233224;28;20144;-68
2022/08/20 13:27:57;;;;;;;1.27;0.80;;;23.90;57.20;;;;;;6222039;28;20117;-68
2022/08/20 13:31:00;;;;;;;1.65;1.05;;;23.90;57.20;;;;;;6244332;28;20031;-68
2022/08/20 13:34:01;;;;;;;0.98;0.88;;;23.90;57.20;;;;;;6240512;28;20030;-68
2022/08/20 13:37:02;;;;;;;0.80;0.80;;;23.90;57.20;;;;;;6221917;28;20029;-68
2022/08/20 13:40:04;;;;;;;0.80;0.80;;;23.80;57.10;;;;;;6234247;28;20033;-67
2022/08/20 13:43:04;;;;;;;1.08;0.93;;;23.90;57.20;;;;;;6245066;28;20036;-68
2022/08/20 13:46:05;;;;;;;1.40;1.20;;;23.90;57.20;;;;;;6225707;28;20022;-68
2022/08/20 13:49:06;;;;;;;0.90;0.80;;;23.90;57.20;;;;;;6224298;28;20089;-68
2022/08/20 13:52:06;;;;;;;0.82;0.82;;;23.90;57.20;;;;;;6246244;28;20555;-67
2022/08/20 13:55:09;;;;;;;1.27;0.80;;;23.90;57.20;;;;;;6234713;28;20026;-68
2022/08/20 13:58:10;;;;;;;0.80;0.70;;;23.90;57.20;;;;;;6221539;28;20079;-68
2022/08/20 14:01:10;;;;;;;0.77;0.77;;;23.90;57.20;;;;;;6227354;28;20378;-68
2022/08/20 14:04:11;;;;;;;0.95;0.90;;;23.80;57.10;;;;;;6199087;28;20097;-67
2022/08/20 14:07:22;;;;;;;1.05;0.93;;;23.90;57.20;;;;;;6245157;28;20034;-67
2022/08/20 14:10:25;;;;;;;1.25;0.95;;;23.80;57.10;;;;;;6235491;28;20534;-68
2022/08/20 14:13:26;;;;;;;0.98;0.88;;;23.80;57.10;;;;;;6244589;28;20057;-67
2022/08/20 14:16:29;;;;;;;0.70;0.70;;;23.80;57.10;;;;;;6226644;28;20018;-68
2022/08/20 14:19:29;;;;;;;1.10;1.00;;;23.80;57.10;;;;;;6223452;28;20026;-67
2022/08/20 14:22:30;;;;;;;0.80;0.80;;;23.80;57.10;;;;;;6245789;28;20668;-67
2022/08/20 14:25:31;;;;;;;1.02;0.93;;;23.80;57.10;;;;;;6235299;28;20061;-67
2022/08/20 14:28:32;;;;;;;0.85;0.80;;;23.80;57.10;;;;;;6220517;28;20363;-68
2022/08/20 14:31:33;;;;;;;0.77;0.77;;;23.80;57.10;;;;;;6235224;28;20346;-67
2022/08/20 14:34:34;;;;;;;1.05;0.90;;;23.80;57.10;;;;;;6242589;28;20026;-67
2022/08/20 14:37:38;;;;;;;0.95;0.90;;;23.90;57.20;;;;;;6220611;28;20443;-67
2022/08/20 14:40:38;;;;;;;1.00;0.90;;;23.80;57.10;;;;;;6211133;28;20073;-67
2022/08/20 14:43:39;;;;;;;1.35;0.98;;;23.80;57.10;;;;;;6195847;28;20034;-68
2022/08/20 14:46:40;;;;;;;0.80;0.80;;;23.80;57.10;;;;;;6201564;28;20025;-68
2022/08/20 14:49:41;;;;;;;0.90;0.90;;;23.90;57.20;;;;;;6215753;28;20026;-67
2022/08/20 14:52:42;;;;;;;1.00;0.90;;;23.80;57.10;;;;;;6224637;28;20042;-68
2022/08/20 14:55:43;;;;;;;1.08;0.90;;;23.80;57.10;;;;;;6224710;28;20025;-68
2022/08/20 14:58:43;;;;;;;0.80;0.80;;;23.80;57.10;;;;;;6230923;28;20045;-67
2022/08/20 15:01:44;;;;;;;0.73;0.73;;;23.80;57.10;;;;;;6217661;28;20044;-68
2022/08/20 15:04:45;;;;;;;1.05;0.95;;;23.80;57.10;;;;;;6240001;28;20120;-67
2022/08/20 15:07:48;;;;;;;1.08;0.80;;;23.80;57.20;;;;;;6218052;28;20033;-67
2022/08/20 15:10:48;;;;;;;0.75;0.75;;;23.80;57.10;;;;;;6222827;28;20014;-68
2022/08/20 15:13:49;;;;;;;0.77;0.68;;;23.80;57.20;;;;;;6242397;28;20108;-67
2022/08/20 15:16:50;;;;;;;1.13;1.02;;;23.80;57.10;;;;;;6227265;28;20037;-68
2022/08/20 15:19:52;;;;;;;1.10;0.95;;;23.80;57.20;;;;;;6240343;28;21418;-67
2022/08/20 15:22:53;;;;;;;1.00;0.82;;;23.80;57.20;;;;;;6217313;28;20426;-68
2022/08/20 15:25:54;;;;;;;0.70;0.70;;;23.80;57.10;;;;;;6222453;28;20089;-68
2022/08/20 15:28:54;;;;;;;0.73;0.73;;;23.80;57.20;;;;;;6227551;28;20138;-68
2022/08/20 15:31:55;;;;;;;0.80;0.80;;;23.80;57.10;;;;;;6230023;28;20037;-68
2022/08/20 15:34:56;;;;;;;0.70;0.70;;;23.80;57.20;;;;;;6237398;28;20460;-68
2022/08/20 15:37:57;;;;;;;1.00;0.90;;;23.80;57.20;;;;;;6223328;28;20040;-68
2022/08/20 15:41:02;;;;;;;0.70;0.70;;;23.80;57.20;;;;;;6237798;28;20042;-68
2022/08/20 15:44:03;;;;;;;1.10;1.00;;;23.80;57.20;;;;;;6237197;28;20029;-68
2022/08/20 15:47:21;;;;;;;0.88;0.70;;;23.80;57.20;;;;;;6219253;28;20034;-67
2022/08/20 15:50:46;;;;;;;1.05;0.95;;;23.80;57.20;;;;;;6239566;28;20025;-68
2022/08/20 15:53:56;;;;;;;1.10;1.00;;;23.80;57.20;;;;;;6211272;28;20816;-68
2022/08/20 15:57:11;;;;;;;0.88;0.80;;;23.80;57.20;;;;;;6233942;28;20026;-68
2022/08/20 16:00:15;;;;;;;0.83;0.80;;;23.80;57.20;;;;;;6237759;28;20038;-68
2022/08/20 16:03:39;;;;;;;1.00;0.90;;;23.80;57.20;;;;;;6235005;28;20032;-68
2022/08/20 16:06:41;;;;;;;0.70;0.70;;;23.80;57.20;;;;;;6209259;28;20086;-68
2022/08/20 16:09:59;;;;;;;1.67;0.98;;;23.80;57.20;;;;;;6232470;28;20395;-67